Time;durP1;ratioP1;P1;durP2;ratioP2;P2;SDS_P1;SDS_P2;PMS_P1;PMS_P2;Temp;Humidity;BMP_temperature;BMP_pressure;BME280_temperature;BME280_humidity;BME280_pressure;Samples;Min_cycle;Max_cycle;Signal;HPM_P1;HPM_P2
2022/11/30 00:02:01;;;;;;;15.40;7.15;;;9.90;99.90;;;;;;10435032;28;20013;-67
2022/11/30 00:07:01;;;;;;;11.25;5.95;;;9.90;99.90;;;;;;10434153;28;20041;-69
2022/11/30 00:12:02;;;;;;;12.93;6.30;;;9.90;99.90;;;;;;10433775;28;20021;-61
2022/11/30 00:17:03;;;;;;;13.07;6.97;;;9.90;99.90;;;;;;10440040;28;20191;-60
2022/11/30 00:22:03;;;;;;;14.60;6.88;;;9.90;99.90;;;;;;10436499;28;20019;-61
2022/11/30 00:27:04;;;;;;;11.70;6.05;;;9.90;99.90;;;;;;10437959;28;20036;-60
2022/11/30 00:32:05;;;;;;;12.20;7.15;;;9.90;99.90;;;;;;10435741;28;20432;-60
2022/11/30 00:37:05;;;;;;;12.15;6.88;;;9.80;99.90;;;;;;10429721;28;20040;-62
2022/11/30 00:42:06;;;;;;;11.90;6.97;;;9.80;99.90;;;;;;10431504;28;20113;-62
2022/11/30 00:47:09;;;;;;;13.20;6.38;;;9.80;99.90;;;;;;10432307;28;20057;-61
2022/11/30 00:52:09;;;;;;;11.85;6.75;;;9.80;99.90;;;;;;10434460;28;20017;-60
2022/11/30 00:57:10;;;;;;;13.43;6.57;;;9.80;99.90;;;;;;10433090;28;20362;-61
2022/11/30 01:02:11;;;;;;;12.32;6.53;;;9.80;99.90;;;;;;10433697;28;20025;-65
2022/11/30 01:07:12;;;;;;;13.18;6.72;;;9.80;99.90;;;;;;10428909;28;20486;-69
2022/11/30 01:12:12;;;;;;;11.38;6.03;;;9.80;99.90;;;;;;10430466;28;20025;-68
2022/11/30 01:17:13;;;;;;;14.93;6.97;;;9.70;99.90;;;;;;10430597;28;20032;-69
2022/11/30 01:22:14;;;;;;;13.55;7.50;;;9.70;99.90;;;;;;10419523;28;20013;-70
2022/11/30 01:27:14;;;;;;;13.70;6.95;;;9.70;99.90;;;;;;10431287;28;20041;-69
2022/11/30 01:32:15;;;;;;;11.73;6.40;;;9.70;99.90;;;;;;10433366;28;20029;-70
2022/11/30 01:37:16;;;;;;;13.18;6.47;;;9.70;99.90;;;;;;10427560;28;20016;-67
2022/11/30 01:42:18;;;;;;;11.82;5.93;;;9.70;99.90;;;;;;10431114;28;20654;-66
2022/11/30 01:47:26;;;;;;;9.10;5.45;;;9.70;99.90;;;;;;10433106;28;20052;-67
2022/11/30 01:52:49;;;;;;;10.88;5.93;;;9.70;99.90;;;;;;10425035;28;20072;-68
2022/11/30 01:58:06;;;;;;;11.55;6.32;;;9.70;99.90;;;;;;10428521;28;20067;-64
2022/11/30 02:03:18;;;;;;;12.02;6.22;;;9.60;99.90;;;;;;10438087;28;20426;-61
2022/11/30 02:08:19;;;;;;;11.60;5.90;;;9.70;99.90;;;;;;10432624;28;20029;-63
2022/11/30 02:13:39;;;;;;;9.43;5.93;;;9.70;99.90;;;;;;10430609;28;20092;-69
2022/11/30 02:19:07;;;;;;;11.25;6.28;;;9.60;99.90;;;;;;10439432;28;20108;-62
2022/11/30 02:24:26;;;;;;;11.05;6.18;;;9.60;99.90;;;;;;10444683;28;20083;-66
2022/11/30 02:29:29;;;;;;;10.50;5.50;;;9.60;99.90;;;;;;10438162;28;20441;-62
2022/11/30 02:34:33;;;;;;;11.93;6.03;;;9.60;99.90;;;;;;10436629;28;20060;-61
2022/11/30 02:39:33;;;;;;;11.93;5.63;;;9.60;99.90;;;;;;10440388;28;20040;-69
2022/11/30 02:44:34;;;;;;;9.05;5.15;;;9.60;99.90;;;;;;10437527;28;20154;-69
2022/11/30 02:49:59;;;;;;;13.30;5.95;;;9.60;99.90;;;;;;10438252;28;20567;-61
2022/11/30 02:55:02;;;;;;;10.68;5.95;;;9.60;99.90;;;;;;10437480;28;20044;-69
2022/11/30 03:00:06;;;;;;;9.73;6.28;;;9.60;99.90;;;;;;10434780;28;20036;-61
2022/11/30 03:05:08;;;;;;;13.13;6.78;;;9.60;99.90;;;;;;10439392;28;20686;-61
2022/11/30 03:10:09;;;;;;;12.93;6.28;;;9.60;99.90;;;;;;10437241;28;20022;-61
2022/11/30 03:15:10;;;;;;;12.52;5.57;;;9.60;99.90;;;;;;10439421;28;20022;-64
2022/11/30 03:20:11;;;;;;;13.23;5.88;;;9.60;99.90;;;;;;10440765;28;20389;-62
2022/11/30 03:25:12;;;;;;;10.30;5.78;;;9.60;99.90;;;;;;10437712;28;20033;-62
2022/11/30 03:30:13;;;;;;;11.35;6.07;;;9.50;99.90;;;;;;10433528;28;21503;-62
2022/11/30 03:35:13;;;;;;;10.13;5.95;;;9.50;99.90;;;;;;10431904;28;20690;-61
2022/11/30 03:40:14;;;;;;;10.65;5.70;;;9.60;99.90;;;;;;10419615;28;20121;-62
2022/11/30 03:45:15;;;;;;;13.68;6.28;;;9.50;99.90;;;;;;10429621;28;20120;-61
2022/11/30 03:50:15;;;;;;;12.07;5.80;;;9.50;99.90;;;;;;10436799;28;20645;-61
2022/11/30 03:55:16;;;;;;;10.82;6.50;;;9.50;99.90;;;;;;10438018;28;20033;-61
2022/11/30 04:00:17;;;;;;;10.70;5.93;;;9.50;99.90;;;;;;10431640;28;20048;-68
2022/11/30 04:05:21;;;;;;;10.77;6.32;;;9.50;99.90;;;;;;10434762;28;20053;-67
2022/11/30 04:10:23;;;;;;;11.98;6.10;;;9.50;99.90;;;;;;10435023;28;20112;-71
2022/11/30 04:15:23;;;;;;;12.30;6.38;;;9.40;99.90;;;;;;10434027;28;20029;-69
2022/11/30 04:20:24;;;;;;;13.73;6.75;;;9.40;99.90;;;;;;10421225;28;20029;-67
2022/11/30 04:25:25;;;;;;;11.32;6.72;;;9.40;99.90;;;;;;10431353;28;20426;-70
2022/11/30 04:30:25;;;;;;;9.90;6.03;;;9.40;99.90;;;;;;10431944;28;20385;-71
2022/11/30 04:35:27;;;;;;;11.75;5.93;;;9.40;99.90;;;;;;10438392;28;20021;-71
2022/11/30 04:40:27;;;;;;;10.93;6.03;;;9.40;99.90;;;;;;10432990;28;20060;-72
2022/11/30 04:45:28;;;;;;;12.07;6.00;;;9.40;99.90;;;;;;10431634;28;20094;-71
2022/11/30 04:50:29;;;;;;;11.30;6.40;;;9.60;99.90;;;;;;10429248;28;20495;-71
2022/11/30 04:55:30;;;;;;;12.88;6.13;;;9.30;99.90;;;;;;10434114;28;20083;-71
2022/11/30 05:00:31;;;;;;;11.30;6.38;;;9.30;99.90;;;;;;10428121;28;20553;-68
2022/11/30 05:05:31;;;;;;;13.13;6.88;;;9.30;99.90;;;;;;10432127;28;20033;-64
2022/11/30 05:10:32;;;;;;;12.38;6.00;;;9.30;99.90;;;;;;10434807;28;20489;-63
2022/11/30 05:15:33;;;;;;;14.35;7.22;;;9.50;99.90;;;;;;10430047;28;20029;-71
2022/11/30 05:20:34;;;;;;;12.43;6.25;;;9.30;99.90;;;;;;10437573;28;20045;-62
2022/11/30 05:25:35;;;;;;;11.75;6.43;;;9.30;99.90;;;;;;10433883;28;20179;-61
2022/11/30 05:30:38;;;;;;;12.90;6.68;;;9.30;99.90;;;;;;10430443;28;20027;-70
2022/11/30 05:35:39;;;;;;;11.10;5.95;;;9.30;99.90;;;;;;10433225;28;20398;-66
2022/11/30 05:40:40;;;;;;;11.65;6.35;;;9.30;99.90;;;;;;10433270;28;20036;-63
2022/11/30 05:45:40;;;;;;;13.20;6.20;;;9.30;99.90;;;;;;10430935;28;20048;-61
2022/11/30 05:50:41;;;;;;;13.25;6.20;;;9.30;99.90;;;;;;10435215;28;20029;-64
2022/11/30 05:55:42;;;;;;;11.93;6.55;;;9.30;99.90;;;;;;10431679;28;20029;-61
2022/11/30 06:00:42;;;;;;;13.93;6.72;;;9.30;99.90;;;;;;10439700;28;20029;-66
2022/11/30 06:05:43;;;;;;;10.52;5.82;;;9.30;99.90;;;;;;10435221;28;20440;-60
2022/11/30 06:10:44;;;;;;;12.00;5.88;;;9.30;99.90;;;;;;10432210;28;20557;-62
2022/11/30 06:15:45;;;;;;;11.70;6.28;;;9.20;99.90;;;;;;10431489;28;20056;-61
2022/11/30 06:20:46;;;;;;;11.25;5.90;;;9.30;99.90;;;;;;10434010;28;20036;-60
2022/11/30 06:25:46;;;;;;;12.63;6.35;;;9.20;99.90;;;;;;10430630;28;20033;-61
2022/11/30 06:30:47;;;;;;;11.02;5.65;;;9.30;99.90;;;;;;10427822;28;20029;-61
2022/11/30 06:35:48;;;;;;;11.10;6.00;;;9.20;99.90;;;;;;10433499;28;20029;-61
2022/11/30 06:40:49;;;;;;;10.05;5.53;;;9.20;99.90;;;;;;10432893;28;20553;-61
2022/11/30 06:45:49;;;;;;;12.07;6.63;;;9.20;99.90;;;;;;10432752;28;20048;-60
2022/11/30 06:50:50;;;;;;;13.52;5.93;;;9.20;99.90;;;;;;10435637;28;20106;-67
2022/11/30 06:55:52;;;;;;;11.90;5.68;;;9.30;99.90;;;;;;10432737;28;20044;-67
2022/11/30 07:00:52;;;;;;;14.48;7.00;;;9.20;99.90;;;;;;10430856;28;20025;-66
2022/11/30 07:05:53;;;;;;;12.65;6.22;;;9.30;99.90;;;;;;10431343;28;20045;-66
2022/11/30 07:10:54;;;;;;;12.02;6.10;;;9.20;99.90;;;;;;10440669;28;20122;-68
2022/11/30 07:15:55;;;;;;;11.02;6.93;;;9.20;99.90;;;;;;10443841;28;20042;-61
2022/11/30 07:20:59;;;;;;;10.45;6.15;;;9.30;99.90;;;;;;10441341;28;20053;-69
2022/11/30 07:26:11;;;;;;;12.40;6.78;;;9.20;99.90;;;;;;10441386;28;20053;-64
2022/11/30 07:31:27;;;;;;;12.15;6.38;;;9.40;99.90;;;;;;10437405;28;20025;-62
2022/11/30 07:36:29;;;;;;;12.32;6.30;;;9.20;99.90;;;;;;10433545;28;20024;-67
2022/11/30 07:41:30;;;;;;;12.98;6.55;;;9.20;99.90;;;;;;10440422;28;20027;-69
2022/11/30 07:46:32;;;;;;;12.93;6.70;;;9.30;99.90;;;;;;10434784;28;20384;-65
2022/11/30 07:51:33;;;;;;;12.38;6.32;;;9.20;99.90;;;;;;10436870;28;20029;-66
2022/11/30 07:56:33;;;;;;;18.40;6.45;;;9.30;99.90;;;;;;10436707;28;20028;-62
2022/11/30 08:01:34;;;;;;;12.60;6.20;;;9.30;99.90;;;;;;10428610;28;20018;-66
2022/11/30 08:06:35;;;;;;;12.57;7.13;;;9.20;99.90;;;;;;10438474;28;20045;-65
2022/11/30 08:11:36;;;;;;;12.93;6.35;;;9.20;99.90;;;;;;10428420;28;20098;-61
2022/11/30 08:16:37;;;;;;;14.57;7.28;;;9.30;99.90;;;;;;10354233;28;20041;-64
2022/11/30 08:21:38;;;;;;;14.70;6.32;;;9.30;99.90;;;;;;10354546;28;20534;-64
2022/11/30 08:26:38;;;;;;;14.43;7.38;;;9.30;99.90;;;;;;10358144;28;20041;-63
2022/11/30 08:31:39;;;;;;;14.43;7.05;;;9.30;99.90;;;;;;10350207;28;20425;-62
2022/11/30 08:36:40;;;;;;;14.20;7.53;;;9.30;99.90;;;;;;10354622;28;20107;-61
2022/11/30 08:41:41;;;;;;;16.25;7.13;;;9.30;99.90;;;;;;10335759;28;20033;-66
2022/11/30 08:46:42;;;;;;;15.82;8.23;;;9.30;99.90;;;;;;10354793;28;20055;-66
2022/11/30 08:51:42;;;;;;;13.75;7.05;;;9.30;99.90;;;;;;10353376;28;20037;-63
2022/11/30 08:56:43;;;;;;;13.77;7.00;;;9.30;99.90;;;;;;10359833;28;20110;-62
2022/11/30 09:01:44;;;;;;;16.10;7.60;;;9.40;99.90;;;;;;10351111;28;20795;-62
2022/11/30 09:06:44;;;;;;;18.02;7.72;;;9.50;99.90;;;;;;10352593;28;20461;-62
2022/11/30 09:11:45;;;;;;;17.25;7.68;;;9.50;99.90;;;;;;10358360;28;20328;-63
2022/11/30 09:16:46;;;;;;;19.25;8.20;;;9.50;99.90;;;;;;10359258;28;20908;-62
2022/11/30 09:21:47;;;;;;;17.20;7.03;;;9.40;99.90;;;;;;10354883;28;20390;-61
2022/11/30 09:26:48;;;;;;;15.48;7.20;;;9.40;99.90;;;;;;10345910;28;20175;-61
2022/11/30 09:31:48;;;;;;;15.00;7.32;;;9.40;99.90;;;;;;10345617;28;20028;-62
2022/11/30 09:36:49;;;;;;;20.98;9.85;;;9.50;99.90;;;;;;10339538;28;20389;-59
2022/11/30 09:42:14;;;;;;;26.27;10.65;;;9.50;99.90;;;;;;10353426;28;20432;-63
2022/11/30 09:47:30;;;;;;;25.23;11.20;;;9.10;99.90;;;;;;10338592;28;20480;-62
2022/11/30 09:52:40;;;;;;;28.00;11.93;;;8.60;99.90;;;;;;10341519;28;20409;-71
2022/11/30 09:57:57;;;;;;;23.42;11.07;;;8.20;99.90;;;;;;10341642;28;20036;-66
2022/11/30 10:03:03;;;;;;;24.92;11.18;;;8.10;99.90;;;;;;10346113;28;20478;-66
2022/11/30 10:08:18;;;;;;;27.13;11.85;;;8.10;99.90;;;;;;10339981;28;20057;-71
2022/11/30 10:13:44;;;;;;;25.05;11.88;;;8.10;99.90;;;;;;10349626;28;20017;-70
2022/11/30 10:18:59;;;;;;;23.75;11.43;;;8.20;99.90;;;;;;10349351;28;20257;-65
2022/11/30 10:24:33;;;;;;;25.02;10.90;;;8.10;99.90;;;;;;10343742;28;20108;-67
2022/11/30 10:29:38;;;;;;;26.35;11.38;;;8.00;99.90;;;;;;10342458;28;20756;-63
2022/11/30 10:34:43;;;;;;;22.00;10.40;;;8.00;99.90;;;;;;10342854;28;20017;-75
2022/11/30 10:39:54;;;;;;;26.60;11.48;;;7.90;99.90;;;;;;10358097;28;20040;-68
2022/11/30 10:45:26;;;;;;;24.02;11.10;;;7.70;99.90;;;;;;10357556;28;20036;-68
2022/11/30 10:50:28;;;;;;;27.63;11.65;;;7.50;99.90;;;;;;10343406;28;20913;-70
2022/11/30 10:55:37;;;;;;;25.35;10.52;;;7.60;99.90;;;;;;10358081;28;20061;-63
2022/11/30 11:00:38;;;;;;;26.48;10.75;;;7.50;99.90;;;;;;10361652;28;20416;-63
2022/11/30 11:05:39;;;;;;;21.92;9.95;;;7.60;99.90;;;;;;10361527;28;20041;-64
2022/11/30 11:10:48;;;;;;;24.52;10.88;;;7.50;99.90;;;;;;10352610;28;20041;-63
2022/11/30 11:15:57;;;;;;;21.60;10.38;;;7.50;99.90;;;;;;10358895;28;20106;-61
2022/11/30 11:21:00;;;;;;;;;;;7.60;99.90;;;;;;10348483;28;20598;-62
2022/11/30 11:26:01;;;;;;;21.13;9.82;;;7.50;99.90;;;;;;10357585;28;20369;-60
2022/11/30 11:31:34;;;;;;;23.70;11.48;;;7.50;99.90;;;;;;10361556;28;20146;-61
2022/11/30 11:36:35;;;;;;;23.00;11.20;;;7.50;99.90;;;;;;10360766;28;20503;-61
2022/11/30 11:41:37;;;;;;;25.67;12.48;;;7.40;99.90;;;;;;10358503;28;20454;-62
2022/11/30 11:46:59;;;;;;;23.55;11.10;;;7.40;99.90;;;;;;10353263;28;20054;-61
2022/11/30 11:52:08;;;;;;;22.17;10.40;;;7.40;99.90;;;;;;10359018;28;20539;-71
2022/11/30 11:57:10;;;;;;;;;;;7.40;99.90;;;;;;10368803;28;20484;-75
2022/11/30 12:02:17;;;;;;;21.20;10.25;;;7.50;99.90;;;;;;10364025;28;19912;-63
2022/11/30 12:07:52;;;;;;;24.65;11.20;;;7.50;99.90;;;;;;10361869;28;20615;-61
2022/11/30 12:12:54;;;;;;;21.10;10.93;;;7.50;99.90;;;;;;10358950;28;20033;-61
2022/11/30 12:18:06;;;;;;;23.98;11.85;;;7.40;99.90;;;;;;10361335;28;20563;-61
2022/11/30 12:23:22;;;;;;;20.58;10.88;;;7.40;99.90;;;;;;10362873;28;20334;-66
2022/11/30 12:28:31;;;;;;;26.45;12.20;;;7.30;99.90;;;;;;10362830;28;20341;-62
2022/11/30 12:33:31;;;;;;;26.87;11.50;;;7.40;99.90;;;;;;10349728;28;20021;-63
2022/11/30 12:39:01;;;;;;;26.00;11.02;;;7.30;99.90;;;;;;10346272;28;20045;-62
2022/11/30 12:44:34;;;;;;;26.60;11.85;;;7.40;99.90;;;;;;10348483;28;20524;-61
2022/11/30 12:49:48;;;;;;;26.50;11.75;;;7.40;99.90;;;;;;10298335;28;20048;-63
2022/11/30 12:55:17;;;;;;;31.73;12.15;;;7.40;99.90;;;;;;10321751;28;20105;-69
2022/11/30 13:00:24;;;;;;;24.58;11.95;;;7.30;99.90;;;;;;10327343;28;20779;-69
2022/11/30 13:05:41;;;;;;;32.22;12.32;;;7.60;99.90;;;;;;10328098;28;20040;-68
2022/11/30 13:10:45;;;;;;;27.08;11.45;;;7.20;99.90;;;;;;10317920;28;20052;-64
2022/11/30 13:15:48;;;;;;;24.23;10.98;;;7.30;99.90;;;;;;10313031;28;20033;-62
2022/11/30 13:21:13;;;;;;;26.63;11.80;;;7.30;99.90;;;;;;10320124;28;20108;-71
2022/11/30 13:26:28;;;;;;;22.23;11.65;;;7.30;99.90;;;;;;10325980;28;20290;-63
2022/11/30 13:31:40;;;;;;;20.60;10.15;;;7.50;99.90;;;;;;10310357;28;20065;-63
2022/11/30 13:36:43;;;;;;;21.98;10.43;;;7.10;99.90;;;;;;10314961;28;20420;-68
2022/11/30 13:42:28;;;;;;;22.35;9.98;;;8.00;99.90;;;;;;10306605;28;20462;-63
2022/11/30 13:47:34;;;;;;;20.20;9.57;;;8.20;99.90;;;;;;10350100;28;20063;-64
2022/11/30 13:53:00;;;;;;;21.98;9.85;;;8.40;99.90;;;;;;10364241;28;20017;-66
2022/11/30 13:58:03;;;;;;;20.25;9.60;;;8.50;99.90;;;;;;10364429;28;20358;-66
2022/11/30 14:03:19;;;;;;;22.60;9.88;;;8.60;99.90;;;;;;10352263;28;20496;-64
2022/11/30 14:08:20;;;;;;;17.17;8.80;;;8.70;99.90;;;;;;10356265;28;20040;-62
2022/11/30 14:13:29;;;;;;;23.67;10.25;;;8.80;99.90;;;;;;10371627;28;20410;-64
2022/11/30 14:18:43;;;;;;;20.65;9.43;;;8.90;99.90;;;;;;10362681;28;20029;-67
2022/11/30 14:23:52;;;;;;;18.38;8.82;;;8.90;99.90;;;;;;10351833;28;20333;-63
2022/11/30 14:28:59;;;;;;;;;;;9.00;99.90;;;;;;10355212;28;20360;-62
2022/11/30 14:34:27;;;;;;;17.58;8.38;;;9.00;99.90;;;;;;10354371;28;20106;-62
2022/11/30 14:39:33;;;;;;;24.80;10.77;;;9.10;99.90;;;;;;10366305;28;20037;-62
2022/11/30 14:44:39;;;;;;;23.40;11.40;;;8.60;99.90;;;;;;10359273;28;20112;-66
2022/11/30 14:49:50;;;;;;;22.23;11.13;;;8.10;99.90;;;;;;10352606;28;20487;-62
2022/11/30 14:55:12;;;;;;;24.83;12.07;;;7.70;99.90;;;;;;10342315;28;20219;-62
2022/11/30 15:00:18;;;;;;;27.42;13.15;;;7.40;99.90;;;;;;10358086;28;20153;-61
2022/11/30 15:05:26;;;;;;;28.75;11.45;;;7.20;99.90;;;;;;10357348;28;20076;-65
2022/11/30 15:10:32;;;;;;;24.90;12.10;;;7.10;99.90;;;;;;10352768;28;20484;-62
2022/11/30 15:15:33;;;;;;;22.90;11.15;;;7.40;99.90;;;;;;10344472;28;20025;-63
2022/11/30 15:20:43;;;;;;;28.38;11.57;;;7.70;99.90;;;;;;10348860;28;20316;-64
2022/11/30 15:26:08;;;;;;;22.23;10.20;;;8.00;99.90;;;;;;10356657;28;20404;-62
2022/11/30 15:31:13;;;;;;;24.27;11.13;;;8.20;99.90;;;;;;10351596;28;20750;-62
2022/11/30 15:36:15;;;;;;;24.63;11.20;;;8.30;99.90;;;;;;10349571;28;20111;-64
2022/11/30 15:41:22;;;;;;;24.20;10.85;;;8.60;99.90;;;;;;10359824;28;20029;-63
2022/11/30 15:46:37;;;;;;;22.13;11.00;;;8.60;99.90;;;;;;10341709;28;20049;-64
2022/11/30 15:51:56;;;;;;;22.48;10.82;;;8.60;99.90;;;;;;10302615;28;20026;-71
2022/11/30 15:56:57;;;;;;;26.58;13.90;;;8.70;99.90;;;;;;10317747;28;20025;-67
2022/11/30 16:07:54;;;;;;;26.77;12.15;;;8.10;99.90;;;;;;10388905;28;20088;-65
2022/11/30 16:12:55;;;;;;;24.33;11.63;;;8.20;99.90;;;;;;10426426;22;20053;-62
2022/11/30 16:18:08;;;;;;;24.45;12.30;;;8.30;99.90;;;;;;10404885;28;20040;-61
2022/11/30 16:23:14;;;;;;;21.92;11.50;;;8.50;99.90;;;;;;10452932;22;20052;-61
2022/11/30 16:28:16;;;;;;;26.45;12.40;;;8.50;99.90;;;;;;10469446;28;20035;-61
2022/11/30 16:33:19;;;;;;;27.20;12.38;;;8.60;99.90;;;;;;10487291;28;20488;-61
2022/11/30 16:38:20;;;;;;;31.63;11.85;;;8.70;99.90;;;;;;10472693;28;20690;-67
2022/11/30 16:43:22;;;;;;;28.90;11.85;;;8.70;99.90;;;;;;10455141;28;20028;-63
2022/11/30 16:48:23;;;;;;;28.00;12.55;;;8.80;99.90;;;;;;10464512;28;20071;-63
2022/11/30 16:53:24;;;;;;;27.67;12.23;;;8.80;99.90;;;;;;10449046;28;20021;-63
2022/11/30 16:58:25;;;;;;;31.05;12.85;;;8.80;99.90;;;;;;10485901;28;20632;-64
2022/11/30 17:03:28;;;;;;;27.60;12.55;;;8.90;99.90;;;;;;10495627;28;20036;-63
2022/11/30 17:08:30;;;;;;;23.15;10.75;;;8.90;99.90;;;;;;10479901;28;20378;-64
2022/11/30 17:13:31;;;;;;;24.08;12.05;;;9.00;99.90;;;;;;10481868;28;20025;-63
2022/11/30 17:18:32;;;;;;;27.63;11.70;;;8.90;99.90;;;;;;10479521;28;20111;-63
2022/11/30 17:23:32;;;;;;;23.63;10.70;;;8.90;99.90;;;;;;10491602;28;20074;-64
2022/11/30 17:28:33;;;;;;;23.65;11.45;;;9.00;99.90;;;;;;10503144;28;20054;-62
2022/11/30 17:33:35;;;;;;;24.15;10.60;;;9.00;99.90;;;;;;10495075;28;20021;-63
2022/11/30 17:38:36;;;;;;;32.95;14.77;;;9.00;99.90;;;;;;10476790;28;20024;-62
2022/11/30 17:43:43;;;;;;;28.40;13.02;;;8.60;99.90;;;;;;10467042;28;20044;-65
2022/11/30 17:48:44;;;;;;;32.78;13.20;;;8.50;99.90;;;;;;10465451;28;20128;-65
2022/11/30 17:53:45;;;;;;;28.15;13.65;;;8.80;99.90;;;;;;10452428;28;20443;-64
2022/11/30 17:58:48;;;;;;;30.17;13.38;;;8.70;99.90;;;;;;10499445;28;20028;-64
2022/11/30 18:03:50;;;;;;;32.58;13.80;;;8.80;99.90;;;;;;10491187;28;20081;-66
2022/11/30 18:08:51;;;;;;;29.58;12.73;;;8.80;99.90;;;;;;10493533;28;20468;-65
2022/11/30 18:13:54;;;;;;;30.58;13.45;;;8.90;99.90;;;;;;10490781;28;20020;-64
2022/11/30 18:18:56;;;;;;;30.08;14.43;;;8.90;99.90;;;;;;10490137;28;20389;-64
2022/11/30 18:23:57;;;;;;;35.70;13.80;;;8.90;99.90;;;;;;10450676;28;20317;-65
2022/11/30 18:28:59;;;;;;;27.00;12.55;;;8.90;99.90;;;;;;10404576;28;20119;-65
2022/11/30 18:34:03;;;;;;;27.30;12.65;;;9.00;99.90;;;;;;10419602;28;20037;-67
2022/11/30 18:39:04;;;;;;;29.33;12.55;;;9.00;99.90;;;;;;10420326;28;20037;-64
2022/11/30 18:44:05;;;;;;;25.60;12.68;;;9.00;99.90;;;;;;10403074;28;20070;-64
2022/11/30 18:49:05;;;;;;;28.42;12.60;;;9.00;99.90;;;;;;10414322;28;20406;-64
2022/11/30 18:54:07;;;;;;;25.63;12.50;;;9.00;99.90;;;;;;10419151;28;20076;-64
2022/11/30 18:59:11;;;;;;;24.70;11.98;;;9.00;99.90;;;;;;10404321;28;20386;-64
2022/11/30 19:04:12;;;;;;;29.73;12.57;;;9.00;99.90;;;;;;10423171;28;20500;-67
2022/11/30 19:09:14;;;;;;;25.55;13.05;;;9.10;99.90;;;;;;10423660;28;20034;-65
2022/11/30 19:14:16;;;;;;;26.40;12.43;;;9.00;99.90;;;;;;10434809;28;20025;-65
2022/11/30 19:19:17;;;;;;;25.48;11.77;;;9.00;99.90;;;;;;10434026;28;20397;-64
2022/11/30 19:24:18;;;;;;;30.85;12.70;;;9.10;99.90;;;;;;10432780;28;20048;-64
2022/11/30 19:29:25;;;;;;;26.50;12.20;;;9.00;99.90;;;;;;10463740;28;20064;-65
2022/11/30 19:34:26;;;;;;;29.60;12.60;;;9.10;99.90;;;;;;10463844;28;20060;-65
2022/11/30 19:39:26;;;;;;;25.98;11.50;;;9.00;99.90;;;;;;10472053;28;20128;-64
2022/11/30 19:44:27;;;;;;;27.10;11.80;;;9.00;99.90;;;;;;10468587;28;20689;-65
2022/11/30 19:49:28;;;;;;;28.80;12.73;;;9.00;99.90;;;;;;10467260;28;20058;-64
2022/11/30 19:54:29;;;;;;;27.23;12.75;;;9.00;99.90;;;;;;10463807;28;20731;-64
2022/11/30 19:59:30;;;;;;;26.80;12.05;;;9.40;99.90;;;;;;10467457;28;20021;-65
2022/11/30 20:04:30;;;;;;;27.05;12.80;;;9.10;99.90;;;;;;10449427;28;20036;-64
2022/11/30 20:09:31;;;;;;;25.65;11.80;;;9.00;99.90;;;;;;10458027;28;20128;-64
2022/11/30 20:14:32;;;;;;;26.95;12.20;;;9.10;99.90;;;;;;10464889;28;20028;-64
2022/11/30 20:19:33;;;;;;;22.92;11.20;;;9.10;99.90;;;;;;10463293;28;20079;-64
2022/11/30 20:24:35;;;;;;;29.05;11.98;;;9.00;99.90;;;;;;10466355;28;20051;-64
2022/11/30 20:29:36;;;;;;;27.27;12.20;;;9.00;99.90;;;;;;10499434;28;20028;-64
2022/11/30 20:34:36;;;;;;;25.13;12.73;;;9.00;99.90;;;;;;10471112;28;20016;-64
2022/11/30 20:39:37;;;;;;;31.35;12.38;;;9.10;99.90;;;;;;10479099;28;20031;-65
2022/11/30 20:44:38;;;;;;;25.90;12.00;;;9.10;99.90;;;;;;10489658;28;20670;-64
2022/11/30 20:49:39;;;;;;;26.85;11.80;;;9.00;99.90;;;;;;10499513;28;20048;-65
2022/11/30 20:54:40;;;;;;;31.13;12.85;;;9.00;99.90;;;;;;10501777;28;20638;-65
2022/11/30 20:59:41;;;;;;;33.28;14.55;;;9.00;99.90;;;;;;10498071;28;20094;-64
2022/11/30 21:04:42;;;;;;;30.27;13.68;;;9.10;99.90;;;;;;10493474;28;20029;-63
2022/11/30 21:09:43;;;;;;;33.63;12.98;;;9.00;99.90;;;;;;10482740;28;20032;-64
2022/11/30 21:14:43;;;;;;;32.55;13.85;;;9.00;99.90;;;;;;10488606;28;20389;-65
2022/11/30 21:19:44;;;;;;;30.17;13.27;;;9.00;99.90;;;;;;10478885;28;20040;-65
2022/11/30 21:24:45;;;;;;;30.83;13.32;;;9.00;99.90;;;;;;10455192;28;20057;-65
2022/11/30 21:29:46;;;;;;;27.08;12.70;;;9.00;99.90;;;;;;10417559;28;20132;-64
2022/11/30 21:34:46;;;;;;;31.77;13.23;;;9.00;99.90;;;;;;10416574;28;20049;-65
2022/11/30 21:39:47;;;;;;;32.10;13.38;;;9.00;99.90;;;;;;10416173;28;20477;-66
2022/11/30 21:44:48;;;;;;;30.05;12.57;;;9.00;99.90;;;;;;10413017;28;20289;-65
2022/11/30 21:49:49;;;;;;;32.10;13.73;;;9.00;99.90;;;;;;10412164;28;20041;-65
2022/11/30 21:54:52;;;;;;;31.90;12.90;;;9.00;99.90;;;;;;10398359;28;20100;-64
2022/11/30 21:59:53;;;;;;;28.92;12.77;;;9.00;99.90;;;;;;10418454;28;20143;-66
2022/11/30 22:04:53;;;;;;;26.77;12.52;;;9.00;99.90;;;;;;10422840;28;20017;-66
2022/11/30 22:09:54;;;;;;;24.70;11.35;;;9.00;99.90;;;;;;10423576;28;20033;-65
2022/11/30 22:14:55;;;;;;;29.92;12.65;;;9.00;99.90;;;;;;10423839;28;20477;-64
2022/11/30 22:19:55;;;;;;;24.63;11.65;;;8.40;99.90;;;;;;10422036;28;20053;-65
2022/11/30 22:24:56;;;;;;;28.23;13.20;;;9.00;99.90;;;;;;10421862;28;20049;-65
2022/11/30 22:29:57;;;;;;;26.08;11.15;;;9.00;99.90;;;;;;10424051;28;20045;-65
2022/11/30 22:34:58;;;;;;;27.27;11.95;;;9.00;99.90;;;;;;10421677;28;20033;-65
2022/11/30 22:39:58;;;;;;;23.25;11.50;;;9.00;99.90;;;;;;10430985;28;20017;-73
2022/11/30 22:44:59;;;;;;;30.75;12.18;;;9.00;99.90;;;;;;10433882;28;20038;-68
2022/11/30 22:50:00;;;;;;;27.27;11.82;;;9.00;99.90;;;;;;10436713;28;20364;-67
2022/11/30 22:55:01;;;;;;;28.58;11.30;;;9.00;99.90;;;;;;10438029;28;20034;-65
2022/11/30 23:00:03;;;;;;;24.88;11.20;;;9.00;99.90;;;;;;10431990;28;20389;-69
2022/11/30 23:05:05;;;;;;;30.77;11.57;;;9.00;99.90;;;;;;10432197;28;20032;-64
2022/11/30 23:10:06;;;;;;;26.65;11.57;;;9.00;99.90;;;;;;10437123;28;20037;-64
2022/11/30 23:15:07;;;;;;;29.67;11.50;;;9.00;99.90;;;;;;10434795;28;20025;-65
2022/11/30 23:20:08;;;;;;;27.00;12.02;;;9.20;99.90;;;;;;10434267;28;21457;-64
2022/11/30 23:25:09;;;;;;;27.27;11.07;;;9.00;99.90;;;;;;10465137;28;20135;-63
2022/11/30 23:30:10;;;;;;;28.92;12.32;;;9.00;99.90;;;;;;10506483;28;20035;-64
2022/11/30 23:35:16;;;;;;;29.15;11.65;;;9.00;99.90;;;;;;10491913;28;20386;-64
2022/11/30 23:40:18;;;;;;;28.75;12.52;;;9.00;99.90;;;;;;10502069;28;20021;-68
2022/11/30 23:45:18;;;;;;;27.33;11.57;;;9.20;99.90;;;;;;10512073;28;20028;-64
2022/11/30 23:50:19;;;;;;;29.67;11.00;;;9.00;99.90;;;;;;10504111;28;20077;-64
2022/11/30 23:55:20;;;;;;;34.15;12.85;;;9.10;99.90;;;;;;10506059;28;20384;-65
